Time;durP1;ratioP1;P1;durP2;ratioP2;P2;SDS_P1;SDS_P2;PMS_P1;PMS_P2;Temp;Humidity;BMP_temperature;BMP_pressure;BME280_temperature;BME280_humidity;BME280_pressure;Samples;Min_cycle;Max_cycle;Signal;HPM_P1;HPM_P2
2022/08/30 00:03:20;;;;;;;13.22;10.28;;;;;;;;;;1682055;84;21068;-68
2022/08/30 00:05:46;;;;;;;12.40;9.20;;;;;;;;;;1702849;84;21087;-69
2022/08/30 00:08:12;;;;;;;10.43;8.43;;;;;;;;;;1702557;83;21049;-68
2022/08/30 00:10:40;;;;;;;13.18;10.30;;;;;;;;;;1701993;83;21540;-68
2022/08/30 00:13:07;;;;;;;12.90;9.33;;;;;;;;;;1702855;83;21049;-68
2022/08/30 00:15:33;;;;;;;12.78;9.38;;;;;;;;;;1703828;83;21083;-68
2022/08/30 00:17:59;;;;;;;13.18;10.10;;;;;;;;;;1701159;83;21075;-68
2022/08/30 00:20:26;;;;;;;14.40;9.80;;;;;;;;;;1699943;83;21096;-69
2022/08/30 00:22:53;;;;;;;14.55;10.15;;;;;;;;;;1700561;83;21017;-68
2022/08/30 00:25:19;;;;;;;11.50;9.73;;;;;;;;;;1704205;83;21191;-68
2022/08/30 00:27:45;;;;;;;13.43;10.18;;;;;;;;;;1693339;84;21151;-68
2022/08/30 00:30:12;;;;;;;13.65;10.35;;;;;;;;;;1731145;82;21048;-67
2022/08/30 00:32:38;;;;;;;12.10;9.10;;;;;;;;;;1738151;81;21012;-67
2022/08/30 00:35:05;;;;;;;12.82;9.58;;;;;;;;;;1730550;81;21052;-67
2022/08/30 00:37:32;;;;;;;15.72;9.75;;;;;;;;;;1730709;81;21048;-68
2022/08/30 00:39:58;;;;;;;12.85;9.68;;;;;;;;;;1728624;81;21124;-67
2022/08/30 00:42:24;;;;;;;10.98;9.18;;;;;;;;;;1730935;81;21044;-68
2022/08/30 00:44:51;;;;;;;14.83;9.80;;;;;;;;;;1738112;81;21068;-67
2022/08/30 00:47:18;;;;;;;13.95;9.53;;;;;;;;;;1736704;81;21073;-67
2022/08/30 00:49:45;;;;;;;12.35;9.48;;;;;;;;;;1740342;81;21621;-68
2022/08/30 00:52:11;;;;;;;13.28;9.75;;;;;;;;;;1732528;81;22547;-67
2022/08/30 00:54:38;;;;;;;11.97;9.38;;;;;;;;;;1733051;81;21076;-67
2022/08/30 00:57:04;;;;;;;12.55;9.33;;;;;;;;;;1721670;82;21082;-67
2022/08/30 00:59:30;;;;;;;11.97;8.50;;;;;;;;;;1740396;82;21573;-67
2022/08/30 01:04:46;;;;;;;13.40;9.10;;;;;;;;;;1706411;78;75321;-66
2022/08/30 01:07:13;;;;;;;15.32;8.95;;;;;;;;;;1699260;83;21012;-66
2022/08/30 01:09:41;;;;;;;13.28;8.73;;;;;;;;;;1698633;83;21595;-69
2022/08/30 01:12:07;;;;;;;13.62;9.50;;;;;;;;;;1703656;82;22212;-69
2022/08/30 01:14:34;;;;;;;14.70;9.25;;;;;;;;;;1696744;81;21654;-69
2022/08/30 01:17:00;;;;;;;13.13;9.43;;;;;;;;;;1695002;81;21091;-69
2022/08/30 01:19:45;;;;;;;13.15;9.43;;;;;;;;;;1708105;81;21080;-69
2022/08/30 01:22:17;;;;;;;14.13;9.68;;;;;;;;;;1649275;86;21616;-67
2022/08/30 01:24:46;;;;;;;15.35;8.93;;;;;;;;;;1604420;87;21164;-68
2022/08/30 01:27:12;;;;;;;11.65;9.23;;;;;;;;;;1660000;84;21798;-68
2022/08/30 01:29:39;;;;;;;12.35;9.50;;;;;;;;;;1654597;85;21016;-67
2022/08/30 01:32:05;;;;;;;13.40;9.15;;;;;;;;;;1657333;84;21060;-68
2022/08/30 01:34:31;;;;;;;12.35;9.28;;;;;;;;;;1604764;87;21533;-68
2022/08/30 01:36:59;;;;;;;11.12;9.00;;;;;;;;;;1665498;83;21060;-68
2022/08/30 01:39:24;;;;;;;12.90;8.45;;;;;;;;;;1676476;83;21081;-68
2022/08/30 01:41:51;;;;;;;12.63;9.48;;;;;;;;;;1706687;83;21045;-68
2022/08/30 01:44:18;;;;;;;14.23;9.23;;;;;;;;;;1696155;83;21071;-68
2022/08/30 01:46:45;;;;;;;12.43;9.55;;;;;;;;;;1696005;82;21109;-67
2022/08/30 01:49:12;;;;;;;12.90;9.73;;;;;;;;;;1692053;81;21165;-68
2022/08/30 01:51:38;;;;;;;12.37;9.80;;;;;;;;;;1706720;83;21071;-68
2022/08/30 01:54:04;;;;;;;12.90;9.70;;;;;;;;;;1697488;82;21060;-68
2022/08/30 01:56:32;;;;;;;12.80;9.95;;;;;;;;;;1686161;83;21068;-68
2022/08/30 01:58:58;;;;;;;14.45;8.98;;;;;;;;;;1688956;83;21595;-68
2022/08/30 02:01:25;;;;;;;12.35;10.30;;;;;;;;;;1693124;82;21551;-67
2022/08/30 02:03:51;;;;;;;13.35;10.40;;;;;;;;;;1690499;82;21143;-67
2022/08/30 02:06:18;;;;;;;10.40;9.13;;;;;;;;;;1689120;83;21033;-67
2022/08/30 02:08:45;;;;;;;14.23;9.38;;;;;;;;;;1687658;82;21040;-67
2022/08/30 02:11:12;;;;;;;11.55;9.60;;;;;;;;;;1680416;83;21112;-67
2022/08/30 02:13:38;;;;;;;12.93;8.65;;;;;;;;;;1683191;83;21084;-67
2022/08/30 02:16:06;;;;;;;12.13;9.03;;;;;;;;;;1685092;83;20993;-67
2022/08/30 02:18:33;;;;;;;15.25;8.80;;;;;;;;;;1658086;84;21481;-67
2022/08/30 02:21:00;;;;;;;14.40;9.78;;;;;;;;;;1689860;83;21060;-68
2022/08/30 02:23:26;;;;;;;12.35;9.55;;;;;;;;;;1684713;83;21060;-67
2022/08/30 02:25:52;;;;;;;12.15;8.38;;;;;;;;;;1691819;83;21107;-68
2022/08/30 02:28:20;;;;;;;14.18;10.05;;;;;;;;;;1690061;83;21051;-68
2022/08/30 02:30:46;;;;;;;14.00;9.30;;;;;;;;;;1694263;83;21009;-68
2022/08/30 02:33:12;;;;;;;12.33;9.88;;;;;;;;;;1685826;83;21083;-67
2022/08/30 02:35:39;;;;;;;12.85;9.00;;;;;;;;;;1679706;84;21603;-67
2022/08/30 02:38:05;;;;;;;13.43;10.82;;;;;;;;;;1649155;84;21048;-69
2022/08/30 02:40:32;;;;;;;12.00;9.23;;;;;;;;;;1697535;83;21009;-68
2022/08/30 02:42:58;;;;;;;11.43;9.45;;;;;;;;;;1682333;83;21045;-68
2022/08/30 02:45:25;;;;;;;12.00;8.98;;;;;;;;;;1677769;83;21554;-68
2022/08/30 02:47:51;;;;;;;13.10;10.23;;;;;;;;;;1656726;85;21036;-68
2022/08/30 02:50:17;;;;;;;13.93;9.83;;;;;;;;;;1633121;86;21099;-68
2022/08/30 02:52:43;;;;;;;13.65;9.40;;;;;;;;;;1660978;85;21118;-68
2022/08/30 02:55:10;;;;;;;12.47;8.98;;;;;;;;;;1637186;83;21072;-68
2022/08/30 02:57:36;;;;;;;14.98;10.63;;;;;;;;;;1635375;86;21589;-68
2022/08/30 03:00:04;;;;;;;12.88;9.83;;;;;;;;;;1637795;85;21059;-68
2022/08/30 03:02:31;;;;;;;14.25;10.95;;;;;;;;;;1627492;86;21144;-68
2022/08/30 03:04:57;;;;;;;13.28;9.98;;;;;;;;;;1680166;83;21626;-69
2022/08/30 03:07:23;;;;;;;13.93;11.08;;;;;;;;;;1682714;83;21036;-68
2022/08/30 03:09:49;;;;;;;17.17;11.70;;;;;;;;;;1692094;82;21112;-67
2022/08/30 03:12:16;;;;;;;17.82;11.48;;;;;;;;;;1682058;82;21583;-68
2022/08/30 03:14:44;;;;;;;16.62;12.25;;;;;;;;;;1687154;83;21060;-68
2022/08/30 03:17:10;;;;;;;14.28;10.25;;;;;;;;;;1690297;83;21111;-68
2022/08/30 03:22:35;;;;;;;16.70;12.75;;;;;;;;;;1808927;78;22920;-70
2022/08/30 03:25:03;;;;;;;17.27;12.15;;;;;;;;;;1774939;80;21023;-70
2022/08/30 03:27:30;;;;;;;15.08;11.03;;;;;;;;;;1767707;80;21000;-69
2022/08/30 03:29:56;;;;;;;14.15;10.48;;;;;;;;;;1769142;80;21013;-70
2022/08/30 03:32:23;;;;;;;14.87;11.05;;;;;;;;;;1772365;80;20984;-70
2022/08/30 03:34:49;;;;;;;14.63;11.60;;;;;;;;;;1792647;80;21040;-70
2022/08/30 03:37:15;;;;;;;15.28;10.35;;;;;;;;;;1768426;80;21129;-69
2022/08/30 03:39:44;;;;;;;15.45;11.20;;;;;;;;;;1763511;80;21047;-69
2022/08/30 03:42:10;;;;;;;12.60;10.85;;;;;;;;;;1773760;80;21017;-69
2022/08/30 03:44:36;;;;;;;12.95;9.50;;;;;;;;;;1761988;80;21044;-69
2022/08/30 03:47:04;;;;;;;13.32;9.48;;;;;;;;;;1761918;80;21063;-69
2022/08/30 03:49:30;;;;;;;14.60;10.55;;;;;;;;;;1761248;80;21032;-68
2022/08/30 03:51:56;;;;;;;13.13;10.53;;;;;;;;;;1772857;80;21076;-68
2022/08/30 03:54:22;;;;;;;13.00;9.58;;;;;;;;;;1784439;80;21508;-68
2022/08/30 03:56:49;;;;;;;13.72;9.33;;;;;;;;;;1773259;80;21540;-67
2022/08/30 03:59:15;;;;;;;15.48;11.95;;;;;;;;;;1770398;80;21064;-66
2022/08/30 04:01:41;;;;;;;15.43;11.70;;;;;;;;;;1773482;80;21096;-67
2022/08/30 04:04:07;;;;;;;14.00;9.65;;;;;;;;;;1746535;80;21546;-68
2022/08/30 04:06:34;;;;;;;13.68;9.20;;;;;;;;;;1733487;82;21024;-68
2022/08/30 04:09:00;;;;;;;13.98;10.58;;;;;;;;;;1726443;81;21043;-68
2022/08/30 04:11:27;;;;;;;14.60;10.00;;;;;;;;;;1730489;82;21516;-69
2022/08/30 04:13:55;;;;;;;14.47;11.48;;;;;;;;;;1734932;81;21546;-68
2022/08/30 04:16:22;;;;;;;13.55;11.50;;;;;;;;;;1759182;81;21554;-68
2022/08/30 04:18:48;;;;;;;12.73;8.98;;;;;;;;;;1738714;81;21032;-68
2022/08/30 04:21:14;;;;;;;12.53;9.83;;;;;;;;;;1735181;81;21032;-67
2022/08/30 04:23:42;;;;;;;12.90;10.72;;;;;;;;;;1742884;81;21035;-67
2022/08/30 04:26:08;;;;;;;13.72;10.32;;;;;;;;;;1734423;81;21071;-69
2022/08/30 04:28:35;;;;;;;11.73;8.48;;;;;;;;;;1725356;81;21017;-69
2022/08/30 04:31:11;;;;;;;12.53;8.60;;;;;;;;;;1728074;81;21050;-69
2022/08/30 04:33:38;;;;;;;12.53;10.05;;;;;;;;;;1724614;81;21033;-69
2022/08/30 04:36:05;;;;;;;13.30;9.73;;;;;;;;;;1741438;81;21520;-70
2022/08/30 04:38:32;;;;;;;10.63;7.90;;;;;;;;;;1736509;81;21535;-70
2022/08/30 04:40:58;;;;;;;10.72;8.83;;;;;;;;;;1728380;81;21060;-70
2022/08/30 04:43:25;;;;;;;10.93;7.87;;;;;;;;;;1729732;81;21056;-67
2022/08/30 04:45:52;;;;;;;10.45;7.42;;;;;;;;;;1729451;81;21079;-70
2022/08/30 04:48:19;;;;;;;11.15;8.83;;;;;;;;;;1729014;81;21025;-70
2022/08/30 04:50:45;;;;;;;10.90;8.58;;;;;;;;;;1730079;81;21092;-70
2022/08/30 04:53:12;;;;;;;9.65;6.83;;;;;;;;;;1734470;81;21009;-70
2022/08/30 04:55:39;;;;;;;9.65;7.47;;;;;;;;;;1729999;81;21060;-68
2022/08/30 04:58:05;;;;;;;10.13;7.92;;;;;;;;;;1730472;81;21041;-68
2022/08/30 05:00:32;;;;;;;11.63;7.17;;;;;;;;;;1723625;81;21111;-68
2022/08/30 05:02:58;;;;;;;9.18;7.35;;;;;;;;;;1729777;81;21602;-68
2022/08/30 05:05:40;;;;;;;8.73;6.90;;;;;;;;;;1698959;83;21197;-69
2022/08/30 05:08:11;;;;;;;10.03;7.20;;;;;;;;;;1722542;82;21523;-69
2022/08/30 05:10:38;;;;;;;9.98;7.55;;;;;;;;;;1721880;82;21054;-69
2022/08/30 05:13:05;;;;;;;8.73;7.33;;;;;;;;;;1728573;81;21029;-68
2022/08/30 05:15:31;;;;;;;7.80;5.92;;;;;;;;;;1736697;81;21016;-68
2022/08/30 05:17:58;;;;;;;9.80;6.78;;;;;;;;;;1732266;81;21558;-68
2022/08/30 05:20:24;;;;;;;9.38;6.45;;;;;;;;;;1737587;81;20996;-69
2022/08/30 05:22:51;;;;;;;8.95;6.50;;;;;;;;;;1743123;81;21108;-68
2022/08/30 05:25:18;;;;;;;10.10;7.40;;;;;;;;;;1725440;81;21056;-67
2022/08/30 05:27:45;;;;;;;8.65;6.15;;;;;;;;;;1727313;81;21580;-67
2022/08/30 05:30:12;;;;;;;7.33;5.65;;;;;;;;;;1728348;82;21005;-68
2022/08/30 05:32:38;;;;;;;8.23;6.45;;;;;;;;;;1724271;81;21056;-70
2022/08/30 05:35:05;;;;;;;11.33;5.95;;;;;;;;;;1730920;81;21079;-68
2022/08/30 05:37:31;;;;;;;10.10;6.25;;;;;;;;;;1718984;81;21048;-69
2022/08/30 05:39:58;;;;;;;11.55;6.08;;;;;;;;;;1719515;81;20984;-69
2022/08/30 05:42:24;;;;;;;8.00;5.20;;;;;;;;;;1696355;84;21069;-69
2022/08/30 05:44:51;;;;;;;8.48;5.15;;;;;;;;;;1717930;82;21001;-70
2022/08/30 05:47:18;;;;;;;6.25;5.65;;;;;;;;;;1736183;81;21054;-69
2022/08/30 05:49:44;;;;;;;7.12;5.15;;;;;;;;;;1732122;81;21087;-69
2022/08/30 05:52:13;;;;;;;5.97;4.90;;;;;;;;;;1734322;81;21040;-69
2022/08/30 05:54:39;;;;;;;7.33;6.10;;;;;;;;;;1717971;81;21064;-70
2022/08/30 05:57:05;;;;;;;6.28;5.15;;;;;;;;;;1735150;81;21028;-69
2022/08/30 05:59:31;;;;;;;5.90;4.83;;;;;;;;;;1729211;81;21448;-69
2022/08/30 06:01:57;;;;;;;7.40;5.17;;;;;;;;;;1739517;81;21000;-71
2022/08/30 06:04:23;;;;;;;6.17;5.17;;;;;;;;;;1728192;81;21122;-71
2022/08/30 06:06:50;;;;;;;8.03;5.60;;;;;;;;;;1756183;81;21602;-70
2022/08/30 06:09:17;;;;;;;9.33;5.42;;;;;;;;;;1747979;81;21091;-70
2022/08/30 06:11:44;;;;;;;7.05;5.03;;;;;;;;;;1729791;81;20997;-70
2022/08/30 06:14:10;;;;;;;5.58;4.62;;;;;;;;;;1723186;81;21049;-70
2022/08/30 06:16:37;;;;;;;6.37;5.15;;;;;;;;;;1684648;83;21489;-70
2022/08/30 06:19:03;;;;;;;6.72;5.12;;;;;;;;;;1692764;83;21064;-68
2022/08/30 06:21:33;;;;;;;6.15;4.87;;;;;;;;;;1734633;81;21083;-72
2022/08/30 06:23:59;;;;;;;8.55;5.10;;;;;;;;;;1742710;81;20997;-72
2022/08/30 06:26:26;;;;;;;5.75;4.78;;;;;;;;;;1737443;81;21025;-71
2022/08/30 06:28:52;;;;;;;6.78;5.17;;;;;;;;;;1725842;82;21035;-71
2022/08/30 06:31:19;;;;;;;6.50;4.47;;;;;;;;;;1748737;81;21047;-71
2022/08/30 06:33:45;;;;;;;8.20;5.45;;;;;;;;;;1734078;81;20957;-71
2022/08/30 06:36:12;;;;;;;7.58;4.75;;;;;;;;;;1736722;81;21047;-72
2022/08/30 06:38:39;;;;;;;6.65;4.15;;;;;;;;;;1751354;81;21491;-72
2022/08/30 06:41:09;;;;;;;6.65;4.50;;;;;;;;;;1745011;81;21039;-72
2022/08/30 06:43:36;;;;;;;9.48;4.10;;;;;;;;;;1746480;81;21046;-72
2022/08/30 06:46:03;;;;;;;7.12;4.33;;;;;;;;;;1731872;81;21475;-72
2022/08/30 06:48:29;;;;;;;5.30;3.75;;;;;;;;;;1731088;82;21063;-72
2022/08/30 06:50:55;;;;;;;5.60;4.00;;;;;;;;;;1735220;82;21040;-72
2022/08/30 06:53:22;;;;;;;5.47;3.72;;;;;;;;;;1730261;82;21044;-69
2022/08/30 06:55:58;;;;;;;6.67;4.15;;;;;;;;;;1730255;82;21094;-70
2022/08/30 06:58:24;;;;;;;4.70;3.90;;;;;;;;;;1728128;82;21776;-69
2022/08/30 07:00:50;;;;;;;5.95;5.33;;;;;;;;;;1730356;82;21098;-69
2022/08/30 07:03:16;;;;;;;8.93;4.65;;;;;;;;;;1739027;81;21095;-70
2022/08/30 07:05:42;;;;;;;4.90;3.80;;;;;;;;;;1742045;81;21076;-73
2022/08/30 07:08:09;;;;;;;5.25;3.90;;;;;;;;;;1716877;81;21515;-73
2022/08/30 07:10:36;;;;;;;4.33;3.80;;;;;;;;;;1738167;81;21044;-73
2022/08/30 07:13:03;;;;;;;5.70;4.10;;;;;;;;;;1741067;82;22262;-72
2022/08/30 07:15:29;;;;;;;4.95;3.67;;;;;;;;;;1733056;81;21027;-72
2022/08/30 07:20:40;;;;;;;5.87;3.72;;;;;;;;;;1733387;81;21564;-73
2022/08/30 07:23:07;;;;;;;5.92;3.33;;;;;;;;;;1731733;82;21080;-74
2022/08/30 07:25:35;;;;;;;18.75;5.20;;;;;;;;;;1727605;82;21067;-73
2022/08/30 07:28:01;;;;;;;5.85;3.65;;;;;;;;;;1728558;82;21068;-72
2022/08/30 07:30:27;;;;;;;6.12;3.52;;;;;;;;;;1727187;82;21111;-71
2022/08/30 07:32:54;;;;;;;5.22;3.40;;;;;;;;;;1724444;82;21591;-69
2022/08/30 07:35:20;;;;;;;5.58;3.27;;;;;;;;;;1722726;82;21049;-70
2022/08/30 07:37:46;;;;;;;7.53;3.77;;;;;;;;;;1720152;82;21104;-71
2022/08/30 07:40:12;;;;;;;7.58;3.60;;;;;;;;;;1721328;83;21090;-70
2022/08/30 07:42:41;;;;;;;6.12;3.30;;;;;;;;;;1723438;82;21087;-70
2022/08/30 07:45:08;;;;;;;6.40;3.50;;;;;;;;;;1721943;83;21061;-68
2022/08/30 07:47:35;;;;;;;8.13;3.55;;;;;;;;;;1722930;83;21043;-69
2022/08/30 07:50:04;;;;;;;5.45;3.80;;;;;;;;;;1723020;82;21591;-69
2022/08/30 07:52:31;;;;;;;5.25;3.50;;;;;;;;;;1721482;82;21413;-69
2022/08/30 07:54:57;;;;;;;8.25;3.58;;;;;;;;;;1667127;86;21083;-70
2022/08/30 07:57:23;;;;;;;5.00;3.60;;;;;;;;;;1670249;86;21050;-70
2022/08/30 07:59:50;;;;;;;5.35;3.80;;;;;;;;;;1668347;86;21128;-71
2022/08/30 08:02:16;;;;;;;5.08;3.50;;;;;;;;;;1700899;82;21108;-71
2022/08/30 08:04:42;;;;;;;5.15;3.27;;;;;;;;;;1693269;84;21071;-71
2022/08/30 08:07:09;;;;;;;5.15;3.37;;;;;;;;;;1673223;84;21142;-71
2022/08/30 08:09:36;;;;;;;7.72;3.22;;;;;;;;;;1726401;82;22060;-73
2022/08/30 08:12:04;;;;;;;11.10;3.47;;;;;;;;;;1723040;82;21001;-73
2022/08/30 08:14:30;;;;;;;8.20;3.90;;;;;;;;;;1725647;82;21189;-73
2022/08/30 08:16:56;;;;;;;10.43;3.35;;;;;;;;;;1728638;82;21045;-74
2022/08/30 08:19:23;;;;;;;5.45;3.60;;;;;;;;;;1728612;82;21084;-72
2022/08/30 08:21:49;;;;;;;4.45;3.10;;;;;;;;;;1722641;82;21485;-71
2022/08/30 08:24:15;;;;;;;3.98;3.25;;;;;;;;;;1719349;82;20993;-73
2022/08/30 08:26:41;;;;;;;4.78;3.20;;;;;;;;;;1711905;82;21041;-73
2022/08/30 08:29:08;;;;;;;4.47;3.25;;;;;;;;;;1724137;82;21088;-72
2022/08/30 08:31:34;;;;;;;4.97;3.47;;;;;;;;;;1720174;82;21891;-72
2022/08/30 08:34:03;;;;;;;5.92;3.22;;;;;;;;;;1716075;82;21028;-72
2022/08/30 08:36:30;;;;;;;4.92;3.50;;;;;;;;;;1707469;82;21613;-72
2022/08/30 08:38:56;;;;;;;5.45;3.40;;;;;;;;;;1703500;82;21083;-72
2022/08/30 08:41:31;;;;;;;7.35;3.40;;;;;;;;;;1703528;82;21028;-73
2022/08/30 08:43:57;;;;;;;6.45;3.70;;;;;;;;;;1703503;82;20993;-73
2022/08/30 08:46:31;;;;;;;6.05;3.40;;;;;;;;;;1712207;82;21060;-73
2022/08/30 08:48:57;;;;;;;8.18;3.70;;;;;;;;;;1712273;84;21028;-71
2022/08/30 08:54:13;;;;;;;6.58;3.60;;;;;;;;;;1707709;82;21145;-71
2022/08/30 08:56:39;;;;;;;5.42;3.65;;;;;;;;;;1703978;82;20997;-71
2022/08/30 08:59:06;;;;;;;5.58;3.55;;;;;;;;;;1667428;85;21127;-72
2022/08/30 09:01:33;;;;;;;4.55;3.47;;;;;;;;;;1661846;85;21109;-71
2022/08/30 09:04:01;;;;;;;6.12;3.30;;;;;;;;;;1721021;82;21041;-72
2022/08/30 09:06:32;;;;;;;7.97;3.95;;;;;;;;;;1728027;82;21029;-72
2022/08/30 09:08:59;;;;;;;4.65;3.58;;;;;;;;;;1700668;82;21034;-73
2022/08/30 09:11:28;;;;;;;5.55;3.22;;;;;;;;;;1703520;82;22236;-72
2022/08/30 09:13:54;;;;;;;5.17;3.50;;;;;;;;;;1701689;82;21059;-73
2022/08/30 09:16:40;;;;;;;9.23;3.70;;;;;;;;;;1715530;82;20985;-72
2022/08/30 09:19:06;;;;;;;4.55;3.02;;;;;;;;;;1715741;82;21078;-71
2022/08/30 09:21:35;;;;;;;5.25;3.40;;;;;;;;;;1722252;82;21060;-72
2022/08/30 09:24:03;;;;;;;9.80;3.70;;;;;;;;;;1730335;82;21103;-71
2022/08/30 09:26:31;;;;;;;3.95;2.90;;;;;;;;;;1728421;82;21531;-72
2022/08/30 09:28:59;;;;;;;5.37;3.15;;;;;;;;;;1725809;82;21520;-71
2022/08/30 09:31:29;;;;;;;4.47;3.20;;;;;;;;;;1730966;82;21091;-70
2022/08/30 09:34:06;;;;;;;5.67;3.67;;;;;;;;;;1727159;82;21517;-71
2022/08/30 09:36:35;;;;;;;5.42;3.15;;;;;;;;;;1720002;82;21016;-73
2022/08/30 09:39:02;;;;;;;4.37;3.27;;;;;;;;;;1734915;82;21029;-73
2022/08/30 09:41:41;;;;;;;4.35;3.17;;;;;;;;;;1720097;82;21059;-74
2022/08/30 09:44:12;;;;;;;10.15;3.45;;;;;;;;;;1726459;82;21087;-70
2022/08/30 09:46:43;;;;;;;4.08;3.02;;;;;;;;;;1722407;82;21045;-69
2022/08/30 09:49:28;;;;;;;6.87;3.55;;;;;;;;;;1727831;82;21463;-70
2022/08/30 09:52:02;;;;;;;4.17;3.37;;;;;;;;;;1723897;82;21501;-68
2022/08/30 09:54:33;;;;;;;5.70;3.02;;;;;;;;;;1731182;82;21076;-70
2022/08/30 09:57:10;;;;;;;5.65;2.95;;;;;;;;;;1730471;82;21076;-70
2022/08/30 09:59:56;;;;;;;4.25;2.90;;;;;;;;;;1726004;82;21029;-68
2022/08/30 10:02:31;;;;;;;5.22;3.20;;;;;;;;;;1722354;82;21682;-70
2022/08/30 10:04:59;;;;;;;4.53;3.00;;;;;;;;;;1724458;82;21067;-72
2022/08/30 10:07:30;;;;;;;4.45;3.15;;;;;;;;;;1730925;82;20998;-71
2022/08/30 10:09:58;;;;;;;4.55;2.87;;;;;;;;;;1727609;82;21079;-71
2022/08/30 10:12:35;;;;;;;8.08;3.20;;;;;;;;;;1728199;82;21076;-71
2022/08/30 10:15:07;;;;;;;8.08;3.62;;;;;;;;;;1729115;82;21559;-69
2022/08/30 10:17:37;;;;;;;5.30;3.30;;;;;;;;;;1724187;82;21083;-70
2022/08/30 10:20:05;;;;;;;6.28;3.08;;;;;;;;;;1719184;82;21033;-69
2022/08/30 10:22:36;;;;;;;3.75;3.10;;;;;;;;;;1727372;82;21017;-69
2022/08/30 10:25:04;;;;;;;4.85;3.33;;;;;;;;;;1729750;82;21036;-69
2022/08/30 10:27:44;;;;;;;7.62;3.60;;;;;;;;;;1725789;82;21053;-68
2022/08/30 10:30:12;;;;;;;4.05;3.12;;;;;;;;;;1723054;82;21048;-68
2022/08/30 10:32:50;;;;;;;4.67;3.10;;;;;;;;;;1725330;82;21331;-71
2022/08/30 10:35:21;;;;;;;5.45;2.90;;;;;;;;;;1702357;82;21033;-71
2022/08/30 10:37:49;;;;;;;4.03;2.80;;;;;;;;;;1723689;82;21080;-71
2022/08/30 10:43:13;;;;;;;4.78;2.85;;;;;;;;;;1724345;82;21108;-72
2022/08/30 10:45:39;;;;;;;5.05;2.92;;;;;;;;;;1726504;82;21066;-72
2022/08/30 10:48:10;;;;;;;5.33;2.80;;;;;;;;;;1719467;82;21080;-72
2022/08/30 10:50:38;;;;;;;4.03;2.90;;;;;;;;;;1720761;82;21060;-71
2022/08/30 10:53:09;;;;;;;8.53;3.15;;;;;;;;;;1722105;82;20993;-72
2022/08/30 10:55:37;;;;;;;6.22;2.90;;;;;;;;;;1723353;82;21017;-71
2022/08/30 10:58:04;;;;;;;4.12;2.70;;;;;;;;;;1708228;82;20988;-71
2022/08/30 11:00:38;;;;;;;7.08;3.00;;;;;;;;;;1723767;82;21068;-71
2022/08/30 11:03:23;;;;;;;3.92;2.80;;;;;;;;;;1729621;82;21177;-71
2022/08/30 11:05:57;;;;;;;5.92;3.00;;;;;;;;;;1719600;83;21077;-71
2022/08/30 11:08:25;;;;;;;7.72;3.17;;;;;;;;;;1731161;82;21039;-70
2022/08/30 11:10:53;;;;;;;7.80;3.33;;;;;;;;;;1718786;83;21016;-67
2022/08/30 11:13:22;;;;;;;6.85;3.30;;;;;;;;;;1726865;82;21032;-68
2022/08/30 11:15:52;;;;;;;6.37;2.80;;;;;;;;;;1740509;82;21040;-70
2022/08/30 11:18:19;;;;;;;3.70;2.85;;;;;;;;;;1738676;82;21098;-70
2022/08/30 11:20:49;;;;;;;6.97;2.90;;;;;;;;;;1724763;82;21036;-69
2022/08/30 11:23:20;;;;;;;5.15;2.77;;;;;;;;;;1719976;82;21052;-68
2022/08/30 11:25:50;;;;;;;5.58;2.80;;;;;;;;;;1711783;83;21064;-71
2022/08/30 11:28:37;;;;;;;4.47;3.02;;;;;;;;;;1713611;82;21033;-71
2022/08/30 11:31:05;;;;;;;4.55;2.95;;;;;;;;;;1713520;82;21100;-72
2022/08/30 11:33:43;;;;;;;6.45;3.00;;;;;;;;;;1717174;82;21081;-72
2022/08/30 11:36:10;;;;;;;7.10;2.87;;;;;;;;;;1718003;82;21439;-70
2022/08/30 11:38:39;;;;;;;6.00;3.27;;;;;;;;;;1729580;82;21084;-70
2022/08/30 11:41:06;;;;;;;7.37;3.58;;;;;;;;;;1734377;82;20998;-70
2022/08/30 11:43:35;;;;;;;4.08;2.92;;;;;;;;;;1725390;82;21040;-69
2022/08/30 11:46:09;;;;;;;4.60;2.77;;;;;;;;;;1730586;81;21039;-69
2022/08/30 11:48:42;;;;;;;4.03;3.00;;;;;;;;;;1714986;82;21020;-71
2022/08/30 11:51:14;;;;;;;3.30;2.65;;;;;;;;;;1724810;82;21032;-69
2022/08/30 11:53:42;;;;;;;4.78;2.90;;;;;;;;;;1732590;82;21524;-70
2022/08/30 11:56:15;;;;;;;4.75;3.00;;;;;;;;;;1725706;82;21402;-70
2022/08/30 11:58:56;;;;;;;4.55;2.75;;;;;;;;;;1704166;82;21055;-71
2022/08/30 12:01:26;;;;;;;4.37;3.10;;;;;;;;;;1712296;80;21626;-69
2022/08/30 12:03:54;;;;;;;6.20;2.70;;;;;;;;;;1691540;84;21067;-69
2022/08/30 12:06:40;;;;;;;5.15;3.02;;;;;;;;;;1668580;85;21080;-70
2022/08/30 12:09:08;;;;;;;6.47;3.10;;;;;;;;;;1728151;82;21039;-71
2022/08/30 12:11:37;;;;;;;8.10;3.17;;;;;;;;;;1737319;81;21016;-71
2022/08/30 12:14:04;;;;;;;6.78;2.80;;;;;;;;;;1716563;82;21090;-72
2022/08/30 12:18:26;;;;;;;5.20;2.75;;;;;;;;;;1715873;82;21088;-73
2022/08/30 12:19:08;;;;;;;5.72;3.22;;;;;;;;;;1720419;82;21029;-78
2022/08/30 12:21:36;;;;;;;14.68;12.00;;;;;;;;;;1731784;82;21094;-71
2022/08/30 12:24:06;;;;;;;14.98;10.18;;;;;;;;;;1724992;82;21092;-72
2022/08/30 12:26:35;;;;;;;6.87;4.65;;;;;;;;;;1709492;82;21052;-70
2022/08/30 12:29:06;;;;;;;5.62;2.75;;;;;;;;;;1733239;82;21500;-74
2022/08/30 12:31:32;;;;;;;4.70;3.10;;;;;;;;;;1718229;82;21072;-74
2022/08/30 12:34:30;;;;;;;3.70;2.60;;;;;;;;;;1738824;82;21078;-72
2022/08/30 12:36:58;;;;;;;5.58;2.77;;;;;;;;;;1742959;82;21545;-71
2022/08/30 12:39:28;;;;;;;6.28;4.17;;;;;;;;;;1737246;82;21051;-71
2022/08/30 12:41:55;;;;;;;5.62;2.90;;;;;;;;;;1745326;82;21063;-70
2022/08/30 12:44:25;;;;;;;5.40;3.05;;;;;;;;;;1739971;82;20959;-71
2022/08/30 12:46:56;;;;;;;5.17;2.60;;;;;;;;;;1738998;82;21531;-71
2022/08/30 12:49:23;;;;;;;3.87;2.75;;;;;;;;;;1742953;82;22258;-71
2022/08/30 12:51:49;;;;;;;16.65;3.58;;;;;;;;;;1738200;82;21031;-71
2022/08/30 12:54:17;;;;;;;4.05;2.80;;;;;;;;;;1738560;82;21075;-71
2022/08/30 12:56:44;;;;;;;4.03;2.72;;;;;;;;;;1740596;82;21612;-71
2022/08/30 12:59:12;;;;;;;4.85;2.98;;;;;;;;;;1728157;82;21101;-72
2022/08/30 13:01:40;;;;;;;4.22;2.75;;;;;;;;;;1719891;83;21074;-73
2022/08/30 13:04:22;;;;;;;7.87;3.10;;;;;;;;;;1686170;85;21090;-71
2022/08/30 13:06:53;;;;;;;4.33;2.55;;;;;;;;;;1688050;85;21031;-72
2022/08/30 13:09:25;;;;;;;4.58;2.58;;;;;;;;;;1686190;85;21023;-71
2022/08/30 13:11:52;;;;;;;5.03;2.80;;;;;;;;;;1684721;85;21057;-71
2022/08/30 13:14:32;;;;;;;3.65;2.65;;;;;;;;;;1689274;85;21042;-71
2022/08/30 13:17:10;;;;;;;3.55;2.67;;;;;;;;;;1691119;85;21011;-69
2022/08/30 13:19:39;;;;;;;8.58;3.00;;;;;;;;;;1686212;85;21054;-72
2022/08/30 13:22:06;;;;;;;11.63;3.05;;;;;;;;;;1688751;83;21075;-72
2022/08/30 13:24:32;;;;;;;4.12;2.70;;;;;;;;;;1690517;85;21081;-73
2022/08/30 13:27:00;;;;;;;6.37;2.83;;;;;;;;;;1690616;85;21032;-71
2022/08/30 13:29:27;;;;;;;3.45;2.50;;;;;;;;;;1683322;85;21010;-71
2022/08/30 13:31:54;;;;;;;5.90;2.60;;;;;;;;;;1691642;85;21026;-71
2022/08/30 13:34:21;;;;;;;4.12;2.80;;;;;;;;;;1702177;83;21530;-71
2022/08/30 13:36:48;;;;;;;4.67;3.08;;;;;;;;;;1691748;85;21012;-71
2022/08/30 13:39:15;;;;;;;5.05;2.80;;;;;;;;;;1687673;84;21074;-71
2022/08/30 13:41:41;;;;;;;5.58;2.60;;;;;;;;;;1685813;85;21077;-70
2022/08/30 13:44:08;;;;;;;5.78;2.80;;;;;;;;;;1690216;84;21044;-70
2022/08/30 13:46:34;;;;;;;4.28;2.33;;;;;;;;;;1692054;85;21541;-70
2022/08/30 13:49:08;;;;;;;6.28;3.02;;;;;;;;;;1689814;84;21518;-70
2022/08/30 13:51:34;;;;;;;6.70;3.12;;;;;;;;;;1691660;85;21061;-69
2022/08/30 13:54:01;;;;;;;4.12;2.58;;;;;;;;;;1686232;85;21018;-71
2022/08/30 13:56:30;;;;;;;6.90;2.62;;;;;;;;;;1686223;84;21010;-75
2022/08/30 13:58:59;;;;;;;4.37;2.55;;;;;;;;;;1690593;83;21165;-74
2022/08/30 14:01:25;;;;;;;4.08;2.70;;;;;;;;;;1691053;84;20989;-76
2022/08/30 14:03:51;;;;;;;6.30;2.67;;;;;;;;;;1690568;84;21039;-74
2022/08/30 14:06:17;;;;;;;6.60;3.15;;;;;;;;;;1684148;85;21544;-74
2022/08/30 14:08:43;;;;;;;3.65;2.52;;;;;;;;;;1691983;85;21020;-74
2022/08/30 14:11:11;;;;;;;3.95;2.42;;;;;;;;;;1688297;85;21050;-74
2022/08/30 14:13:39;;;;;;;4.37;2.60;;;;;;;;;;1685120;83;21066;-74
2022/08/30 14:16:06;;;;;;;3.52;2.62;;;;;;;;;;1678704;83;21620;-74
2022/08/30 14:18:32;;;;;;;5.08;2.45;;;;;;;;;;1675546;83;21592;-74
2022/08/30 14:20:59;;;;;;;6.83;3.10;;;;;;;;;;1678721;83;21616;-73
2022/08/30 14:23:25;;;;;;;4.30;2.60;;;;;;;;;;1678336;83;21010;-73
2022/08/30 14:25:51;;;;;;;5.95;2.98;;;;;;;;;;1678069;83;21105;-74
2022/08/30 14:28:18;;;;;;;6.10;2.80;;;;;;;;;;1680114;83;21056;-73
2022/08/30 14:30:44;;;;;;;7.53;2.58;;;;;;;;;;1673895;83;21461;-73
2022/08/30 14:33:10;;;;;;;4.97;2.70;;;;;;;;;;1678483;83;21090;-73
2022/08/30 14:35:36;;;;;;;4.67;2.50;;;;;;;;;;1681046;83;21348;-75
2022/08/30 14:38:02;;;;;;;4.20;2.65;;;;;;;;;;1684467;83;21058;-69
2022/08/30 14:40:28;;;;;;;4.72;3.58;;;;;;;;;;1677097;83;21061;-73
2022/08/30 14:42:54;;;;;;;5.78;3.92;;;;;;;;;;1680935;83;21549;-71
2022/08/30 14:45:20;;;;;;;5.25;2.70;;;;;;;;;;1681444;83;22316;-73
2022/08/30 14:47:46;;;;;;;6.25;3.00;;;;;;;;;;1699426;83;21547;-72
2022/08/30 14:50:12;;;;;;;5.92;2.80;;;;;;;;;;1694838;83;21060;-72
2022/08/30 14:52:39;;;;;;;5.20;2.70;;;;;;;;;;1693923;84;21093;-73
2022/08/30 14:55:07;;;;;;;5.95;3.08;;;;;;;;;;1685629;84;21466;-72
2022/08/30 14:57:33;;;;;;;4.37;2.85;;;;;;;;;;1698010;84;21074;-72